Alexanr Zhitnik — EMBN — position and weather

sailwx.info

Track history (hours):
 
Tides and Currents Weather Stations Pressure Air Temp Water Temp Dewpoint Dewpoint Depression Visibility Wind Speed Wind Dir Waves Ship Positions

Alexanr Zhitnik

Last reported at 2014-Sep-30 23:29 UTC. Time now 2014-Oct-01 18:27 UTC.
Position N 46°36' E 031°43'.

Length 85 m; draft 1.8 m.

Type: Cargo ship. MMSI: 272089600.

Date/timePositionNaut miles runAvg speedWind from/ knotsBaromVisibWave heightAir tempDewpointWater temp
2014-Sep-30 23:29N 46°36' E 031°43'6 6.1
2014-Sep-30 22:33N 46°35' E 031°51'6 6.0
2014-Sep-30 21:33N 46°33' E 031°59'5 2.1
2014-Sep-30 19:18N 46°30' E 032°04'0 0.0
2014-Sep-30 18:33N 46°30' E 032°04'0 0.0
2014-Sep-30 17:33N 46°30' E 032°04'0 0.0
2014-Sep-30 16:34N 46°30' E 032°04'0 0.0
2014-Sep-30 15:34N 46°30' E 032°04'0 0.0
2014-Sep-30 14:33N 46°30' E 032°04'0 0.0
2014-Sep-30 13:33N 46°30' E 032°04'  
2014-Sep-21 12:29N 46°31' E 032°05'1 0.1
2014-Sep-21 03:33N 46°30' E 032°05'2 2.1
2014-Sep-21 02:34N 46°32' E 032°04'6 5.5
2014-Sep-21 01:33N 46°34' E 031°57'6 6.0
2014-Sep-21 00:33N 46°35' E 031°49'6 5.9
2014-Sep-20 23:32N 46°35' E 031°40'  
Track history (hours):
 
Tides and Currents Weather Stations Pressure Air Temp Water Temp Dewpoint Dewpoint Depression Visibility Wind Speed Wind Dir Waves Ship Positions

Alexanr Zhitnik

Last reported at 2014-Sep-30 23:29 UTC. Time now 2014-Oct-01 18:27 UTC.
Position N 46°36' E 031°43'.

Length 85 m; draft 1.8 m.

Type: Cargo ship. MMSI: 272089600.

Date/timePositionNaut miles runAvg speedWind from/ knotsBaromVisibWave heightAir tempDewpointWater temp
2014-Sep-30 23:29N 46°36' E 031°43'6 6.1
2014-Sep-30 22:33N 46°35' E 031°51'6 6.0
2014-Sep-30 21:33N 46°33' E 031°59'5 2.1
2014-Sep-30 19:18N 46°30' E 032°04'0 0.0
2014-Sep-30 18:33N 46°30' E 032°04'0 0.0
2014-Sep-30 17:33N 46°30' E 032°04'0 0.0
2014-Sep-30 16:34N 46°30' E 032°04'0 0.0
2014-Sep-30 15:34N 46°30' E 032°04'0 0.0
2014-Sep-30 14:33N 46°30' E 032°04'0 0.0
2014-Sep-30 13:33N 46°30' E 032°04'  
2014-Sep-21 12:29N 46°31' E 032°05'1 0.1
2014-Sep-21 03:33N 46°30' E 032°05'2 2.1
2014-Sep-21 02:34N 46°32' E 032°04'6 5.5
2014-Sep-21 01:33N 46°34' E 031°57'6 6.0
2014-Sep-21 00:33N 46°35' E 031°49'6 5.9
2014-Sep-20 23:32N 46°35' E 031°40'  

Dump ship's entire track history